Time;durP1;ratioP1;P1;durP2;ratioP2;P2;SDS_P1;SDS_P2;PMS_P1;PMS_P2;Temp;Humidity;BMP_temperature;BMP_pressure;BME280_temperature;BME280_humidity;BME280_pressure;Samples;Min_cycle;Max_cycle;Signal;HPM_P1;HPM_P2
2023/01/29 00:01:50;;;;;;;;;36.50;25.25;;;;;5.02;99.71;102831.09;5033734;28;45467;-70
2023/01/29 00:04:15;;;;;;;;;40.50;31.75;;;;;5.00;100.00;102838.81;5053281;28;45301;-73
2023/01/29 00:06:41;;;;;;;;;28.50;24.25;;;;;4.95;99.78;102840.22;5033502;28;45621;-72
2023/01/29 00:09:07;;;;;;;;;35.25;22.50;;;;;4.94;99.90;102838.41;5036128;28;46107;-72
2023/01/29 00:11:32;;;;;;;;;36.00;29.25;;;;;4.92;99.92;102832.19;5046076;28;56810;-71
2023/01/29 00:13:57;;;;;;;;;30.25;26.75;;;;;4.89;99.68;102835.50;5038436;28;51405;-72
2023/01/29 00:16:23;;;;;;;;;35.25;26.25;;;;;4.85;100.00;102832.59;5037768;28;48686;-70
2023/01/29 00:18:49;;;;;;;;;41.75;33.75;;;;;4.83;99.98;102823.72;5034509;28;45658;-70
2023/01/29 00:21:16;;;;;;;;;36.25;25.50;;;;;4.83;100.00;102832.47;5036340;28;46055;-71
2023/01/29 00:23:42;;;;;;;;;33.00;25.75;;;;;4.81;100.00;102831.47;5040796;28;45388;-72
2023/01/29 00:26:08;;;;;;;;;39.50;31.25;;;;;4.79;100.00;102830.47;5029939;28;45595;-72
2023/01/29 00:28:33;;;;;;;;;46.25;26.25;;;;;4.74;100.00;102824.03;5051914;28;45422;-71
2023/01/29 00:31:12;;;;;;;;;45.25;30.75;;;;;4.69;100.00;102826.34;5045491;28;45411;-70
2023/01/29 00:33:38;;;;;;;;;34.75;25.75;;;;;4.65;100.00;102834.78;5030362;28;45408;-70
2023/01/29 00:36:09;;;;;;;;;35.00;30.75;;;;;4.64;100.00;102827.75;5044368;28;45462;-71
2023/01/29 00:38:35;;;;;;;;;45.00;35.00;;;;;4.56;100.00;102814.94;5026177;28;45469;-70
2023/01/29 00:46:42;;;;;;;;;35.00;24.50;;;;;4.57;100.00;102825.50;5027649;28;45505;-71
2023/01/29 00:49:08;;;;;;;;;38.00;29.25;;;;;4.54;100.00;102813.94;5038074;28;57656;-70
2023/01/29 00:51:34;;;;;;;;;41.00;32.50;;;;;4.53;100.00;102818.28;5036920;28;45614;-73
2023/01/29 00:54:00;;;;;;;;;55.25;38.50;;;;;4.49;100.00;102816.25;5039688;28;46147;-71
2023/01/29 00:56:30;;;;;;;;;48.00;35.50;;;;;4.51;100.00;102819.88;5055955;28;45467;-71
2023/01/29 00:58:55;;;;;;;;;51.00;35.25;;;;;4.49;100.00;102823.19;5035335;28;61127;-70
2023/01/29 01:04:07;;;;;;;;;52.00;36.25;;;;;4.45;100.00;102824.69;5036886;28;45374;-72
2023/01/29 01:06:33;;;;;;;;;36.25;32.50;;;;;4.44;100.00;102820.25;5024824;28;45519;-70
2023/01/29 01:11:42;;;;;;;;;44.75;38.25;;;;;4.39;100.00;102808.59;5045043;28;45307;-73
2023/01/29 01:14:08;;;;;;;;;45.25;34.50;;;;;4.40;100.00;102816.53;5043281;28;45293;-71
2023/01/29 01:16:33;;;;;;;;;50.75;39.25;;;;;4.35;100.00;102811.78;5056698;28;45602;-70
2023/01/29 01:18:59;;;;;;;;;46.50;38.75;;;;;4.35;100.00;102810.06;5051797;28;58956;-74
2023/01/29 01:21:24;;;;;;;;;38.50;35.75;;;;;4.35;100.00;102814.41;5042049;28;45506;-70
2023/01/29 01:23:50;;;;;;;;;48.00;35.25;;;;;4.30;100.00;102800.09;5041717;28;45862;-74
2023/01/29 01:26:16;;;;;;;;;45.25;39.50;;;;;4.29;100.00;102816.59;5048564;28;46287;-72
2023/01/29 01:28:42;;;;;;;;;51.00;40.00;;;;;4.27;100.00;102820.84;5056100;28;46247;-71
2023/01/29 01:31:12;;;;;;;;;53.50;37.50;;;;;4.23;100.00;102816.19;5025852;28;45247;-71
2023/01/29 01:33:37;;;;;;;;;39.75;31.25;;;;;4.23;100.00;102814.47;5049315;28;45427;-70
2023/01/29 01:36:04;;;;;;;;;44.75;38.75;;;;;4.20;100.00;102817.78;5041561;28;45337;-71
2023/01/29 01:38:29;;;;;;;;;48.25;33.50;;;;;4.19;100.00;102826.44;5046397;28;47080;-70
2023/01/29 01:40:54;;;;;;;;;43.25;33.75;;;;;4.15;100.00;102811.31;5039275;28;46606;-71
2023/01/29 01:43:20;;;;;;;;;42.75;27.50;;;;;4.12;100.00;102815.47;5042269;28;49805;-70
2023/01/29 01:45:45;;;;;;;;;42.50;39.00;;;;;4.14;100.00;102819.06;5036877;28;53740;-70
2023/01/29 01:48:16;;;;;;;;;48.50;37.50;;;;;4.10;100.00;102820.59;5036255;28;47507;-72
2023/01/29 01:50:55;;;;;;;;;39.00;29.00;;;;;4.09;100.00;102821.34;5034886;28;45564;-74
2023/01/29 01:54:06;;;;;;;;;45.75;36.25;;;;;4.06;100.00;102818.56;5024319;28;45432;-72
2023/01/29 01:56:39;;;;;;;;;44.00;30.75;;;;;4.04;100.00;102819.22;5014052;28;45486;-69
2023/01/29 01:59:07;;;;;;;;;39.00;37.00;;;;;4.06;100.00;102822.88;5043051;28;46575;-74
2023/01/29 02:01:33;;;;;;;;;42.00;28.75;;;;;4.02;100.00;102819.13;5030887;28;45555;-74
2023/01/29 02:09:39;;;;;;;;;48.25;37.00;;;;;4.02;100.00;102836.53;5029123;28;45847;-71
2023/01/29 02:12:07;;;;;;;;;39.50;33.75;;;;;4.03;100.00;102833.09;5027042;28;45491;-71
2023/01/29 02:14:37;;;;;;;;;48.75;36.50;;;;;4.05;100.00;102832.44;5036057;28;45281;-74
2023/01/29 02:17:04;;;;;;;;;47.00;35.00;;;;;4.04;100.00;102825.34;5038414;28;45518;-72
2023/01/29 02:20:00;;;;;;;;;47.25;33.75;;;;;4.09;100.00;102831.81;5014037;28;47570;-74
2023/01/29 02:22:45;;;;;;;;;42.50;34.75;;;;;4.06;100.00;102829.00;5051819;28;45475;-72
2023/01/29 02:25:31;;;;;;;;;49.00;35.25;;;;;4.07;100.00;102836.03;5025379;28;45297;-74
2023/01/29 02:28:15;;;;;;;;;48.50;37.00;;;;;4.09;100.00;102839.66;5046884;28;45196;-72
2023/01/29 02:30:41;;;;;;;;;46.75;33.50;;;;;4.10;100.00;102838.88;5052420;28;46805;-73
2023/01/29 02:33:24;;;;;;;;;44.25;33.00;;;;;4.11;100.00;102827.63;5027308;28;45304;-71
2023/01/29 02:36:11;;;;;;;;;41.25;34.50;;;;;4.12;100.00;102832.03;5031708;28;45399;-71
2023/01/29 02:38:43;;;;;;;;;41.75;35.00;;;;;4.14;100.00;102835.66;5044036;28;45556;-74
2023/01/29 02:41:11;;;;;;;;;50.25;34.50;;;;;4.14;100.00;102833.03;5030858;28;45681;-72
2023/01/29 02:43:46;;;;;;;;;51.50;36.25;;;;;4.14;100.00;102832.13;5040380;28;45380;-73
2023/01/29 02:46:20;;;;;;;;;44.00;40.00;;;;;4.17;100.00;102825.44;5038607;28;45491;-74
2023/01/29 02:49:09;;;;;;;;;46.50;35.75;;;;;4.18;100.00;102823.72;5055171;28;45423;-72
2023/01/29 02:51:57;;;;;;;;;50.75;38.25;;;;;4.18;100.00;102822.00;5052067;28;46444;-75
2023/01/29 02:54:30;;;;;;;;;41.25;35.75;;;;;4.18;100.00;102813.25;5044548;28;45412;-73
2023/01/29 02:57:29;;;;;;;;;41.75;36.00;;;;;4.15;100.00;102819.16;5033527;28;45490;-72
2023/01/29 03:00:10;;;;;;;;;48.25;40.00;;;;;4.07;100.00;102802.06;5002809;28;45307;-72
2023/01/29 03:03:01;;;;;;;;;39.50;33.25;;;;;4.11;100.00;102797.97;5039769;28;46624;-72
2023/01/29 03:05:36;;;;;;;;;50.50;39.75;;;;;4.06;100.00;102794.13;5043158;28;45458;-72
2023/01/29 03:08:05;;;;;;;;;36.75;35.00;;;;;4.09;100.00;102802.16;5026633;28;45252;-72
2023/01/29 03:10:51;;;;;;;;;42.00;36.75;;;;;4.08;100.00;102798.63;5027709;28;45720;-72
2023/01/29 03:13:26;;;;;;;;;41.00;32.75;;;;;4.10;100.00;102801.34;5045964;28;45819;-73
2023/01/29 03:16:00;;;;;;;;;42.00;36.00;;;;;4.04;100.00;102806.16;5028788;28;45548;-70
2023/01/29 03:18:30;;;;;;;;;44.00;36.75;;;;;3.97;100.00;102802.22;5041663;28;45165;-75
2023/01/29 03:21:49;;;;;;;;;46.00;42.25;;;;;3.93;100.00;102808.94;5041189;28;45395;-71
2023/01/29 03:32:08;;;;;;;;;45.50;39.25;;;;;3.75;100.00;102786.75;5043255;28;45265;-75
2023/01/29 03:34:42;;;;;;;;;52.75;36.75;;;;;3.79;100.00;102795.72;5040101;28;61866;-72
2023/01/29 03:37:13;;;;;;;;;38.25;36.75;;;;;3.75;100.00;102789.38;5027781;28;45298;-74
2023/01/29 03:39:39;;;;;;;;;51.00;35.25;;;;;3.75;100.00;102793.69;5031291;28;45340;-72
2023/01/29 03:42:16;;;;;;;;;41.75;36.50;;;;;3.75;100.00;102807.66;5038501;28;45475;-75
2023/01/29 03:44:59;;;;;;;;;46.25;34.75;;;;;3.72;100.00;102802.22;5030676;28;46386;-72
2023/01/29 03:47:43;;;;;;;;;44.75;34.50;;;;;3.72;100.00;102798.69;5020888;28;45528;-71
2023/01/29 03:50:27;;;;;;;;;48.75;35.00;;;;;3.65;100.00;102803.50;5051844;28;45402;-72
2023/01/29 03:53:14;;;;;;;;;50.00;41.50;;;;;3.66;100.00;102805.31;5027317;28;45618;-73
2023/01/29 03:55:54;;;;;;;;;45.75;37.00;;;;;3.64;100.00;102795.56;5047343;28;46805;-73
2023/01/29 03:58:34;;;;;;;;;38.25;29.75;;;;;3.68;100.00;102802.81;5047459;28;45377;-71
2023/01/29 04:01:09;;;;;;;;;42.00;34.00;;;;;3.64;100.00;102780.78;5039788;28;45345;-72
2023/01/29 04:03:38;;;;;;;;;43.00;37.25;;;;;3.64;100.00;102786.00;5050314;28;47927;-72
2023/01/29 04:06:10;;;;;;;;;42.50;35.25;;;;;3.65;100.00;102797.38;5048883;28;46645;-72
2023/01/29 04:08:43;;;;;;;;;43.50;32.25;;;;;3.64;100.00;102783.41;5040051;28;45572;-74
2023/01/29 04:11:12;;;;;;;;;45.75;31.25;;;;;3.62;100.00;102794.53;5053059;28;45338;-71
2023/01/29 04:13:37;;;;;;;;;42.00;30.25;;;;;3.62;100.00;102782.41;5028823;28;45253;-72
2023/01/29 04:16:05;;;;;;;;;45.25;33.75;;;;;3.63;100.00;102796.38;5026891;28;45446;-71
2023/01/29 04:18:31;;;;;;;;;39.00;27.50;;;;;3.60;100.00;102783.97;5024126;28;45530;-72
2023/01/29 04:20:56;;;;;;;;;39.50;33.25;;;;;3.58;100.00;102796.03;5032114;28;45511;-75
2023/01/29 04:23:26;;;;;;;;;44.50;36.75;;;;;3.60;100.00;102806.59;5045397;28;45425;-75
2023/01/29 04:25:57;;;;;;;;;47.50;38.50;;;;;3.61;100.00;102803.16;5055512;28;46050;-72
2023/01/29 04:28:27;;;;;;;;;41.50;36.50;;;;;3.60;100.00;102791.81;5056036;28;45374;-71
2023/01/29 04:30:59;;;;;;;;;43.50;35.00;;;;;3.62;100.00;102812.81;5022908;28;45527;-72
2023/01/29 04:33:34;;;;;;;;;40.75;28.75;;;;;3.58;100.00;102790.81;5036099;28;45559;-74
2023/01/29 04:36:09;;;;;;;;;32.50;29.75;;;;;3.55;100.00;102798.41;5031300;28;46790;-72
2023/01/29 04:38:50;;;;;;;;;39.50;35.00;;;;;3.53;100.00;102807.84;5049708;28;45404;-72
2023/01/29 04:41:46;;;;;;;;;47.00;37.75;;;;;3.51;100.00;102806.81;5031550;28;45277;-72
2023/01/29 04:44:32;;;;;;;;;51.00;32.00;;;;;3.49;100.00;102818.88;5048765;28;45362;-72
2023/01/29 04:47:16;;;;;;;;;38.50;32.50;;;;;3.47;100.00;102817.88;5033381;28;45788;-73
2023/01/29 04:49:46;;;;;;;;;52.25;41.50;;;;;3.48;100.00;102813.56;5046139;28;45364;-72
2023/01/29 04:52:22;;;;;;;;;38.75;30.75;;;;;3.46;100.00;102818.66;5041198;28;45367;-75
2023/01/29 04:55:04;;;;;;;;;39.00;33.00;;;;;3.45;100.00;102818.53;5036461;28;45435;-72
2023/01/29 04:57:45;;;;;;;;;33.00;27.75;;;;;3.45;100.00;102819.44;5032292;28;48027;-72
2023/01/29 05:00:18;;;;;;;;;57.50;40.25;;;;;3.46;100.00;102820.34;5038946;28;45254;-73
2023/01/29 05:02:44;;;;;;;;;38.50;36.75;;;;;3.47;100.00;102824.81;5032237;28;45578;-72
2023/01/29 05:05:10;;;;;;;;;38.00;26.75;;;;;3.45;100.00;102813.31;5054522;28;46235;-74
2023/01/29 05:07:37;;;;;;;;;44.50;34.75;;;;;3.40;100.00;102816.50;5050031;28;45359;-74
2023/01/29 05:10:08;;;;;;;;;42.75;33.00;;;;;3.37;100.00;102825.84;5015482;28;45554;-73
2023/01/29 05:12:35;;;;;;;;;37.75;31.75;;;;;3.35;100.00;102823.09;5016498;28;45504;-74
2023/01/29 05:15:04;;;;;;;;;37.00;30.00;;;;;3.33;100.00;102821.19;5033213;28;45576;-72
2023/01/29 05:17:29;;;;;;;;;49.00;36.50;;;;;3.33;100.00;102811.66;5030804;28;46585;-73
2023/01/29 05:19:55;;;;;;;;;44.25;33.75;;;;;3.29;100.00;102799.16;5042239;28;45421;-73
2023/01/29 05:22:22;;;;;;;;;41.75;36.50;;;;;3.31;100.00;102794.97;5036208;28;55867;-75
2023/01/29 05:24:48;;;;;;;;;38.00;29.75;;;;;3.35;100.00;102799.59;5034547;28;45269;-71
2023/01/29 05:30:14;;;;;;;;;49.25;30.75;;;;;3.33;100.00;102785.53;5028749;28;45468;-72
2023/01/29 05:32:40;;;;;;;;;39.50;34.25;;;;;3.35;100.00;102801.31;5025232;28;45349;-72
2023/01/29 05:35:05;;;;;;;;;43.00;32.50;;;;;3.33;100.00;102795.06;5056025;28;45445;-72
2023/01/29 05:37:31;;;;;;;;;40.50;33.25;;;;;3.31;100.00;102796.69;5052256;28;46563;-72
2023/01/29 05:39:56;;;;;;;;;42.00;35.75;;;;;3.30;100.00;102802.69;5052908;28;59844;-71
2023/01/29 05:42:21;;;;;;;;;49.75;34.25;;;;;3.29;100.00;102806.09;5038519;28;55252;-72
2023/01/29 05:44:47;;;;;;;;;43.25;36.50;;;;;3.28;100.00;102801.66;5052061;28;47152;-72
2023/01/29 05:47:12;;;;;;;;;36.00;30.00;;;;;3.28;100.00;102804.28;5044408;28;45806;-74
2023/01/29 05:49:37;;;;;;;;;37.00;29.00;;;;;3.31;100.00;102801.91;5038862;28;45352;-74
2023/01/29 05:52:03;;;;;;;;;42.50;35.25;;;;;3.29;100.00;102803.47;5041667;28;55590;-73
2023/01/29 05:54:28;;;;;;;;;39.50;30.25;;;;;3.29;100.00;102803.47;5034789;28;45434;-75
2023/01/29 05:56:54;;;;;;;;;49.25;40.50;;;;;3.29;100.00;102803.47;5047106;28;58308;-72
2023/01/29 05:59:19;;;;;;;;;38.50;32.25;;;;;3.27;100.00;102802.47;5027948;28;54295;-74
2023/01/29 06:01:44;;;;;;;;;44.00;28.25;;;;;3.24;100.00;102797.03;5041009;28;45687;-71
2023/01/29 06:04:10;;;;;;;;;43.75;31.25;;;;;3.20;100.00;102801.13;5043992;28;50663;-73
2023/01/29 06:06:35;;;;;;;;;46.25;36.75;;;;;3.24;100.00;102802.25;5041854;28;46015;-72
2023/01/29 06:09:00;;;;;;;;;34.75;31.00;;;;;3.26;100.00;102801.56;5054507;28;56248;-72
2023/01/29 06:11:26;;;;;;;;;38.25;30.00;;;;;3.27;100.00;102810.31;5031566;28;54361;-74
2023/01/29 06:13:51;;;;;;;;;37.25;28.75;;;;;3.26;100.00;102812.00;5047346;28;45455;-72
2023/01/29 06:16:16;;;;;;;;;36.25;27.75;;;;;3.28;100.00;102822.56;5051298;28;45277;-74
2023/01/29 06:18:42;;;;;;;;;37.50;30.00;;;;;3.28;100.00;102818.25;5043022;28;54942;-71
2023/01/29 06:21:10;;;;;;;;;33.50;29.75;;;;;3.26;100.00;102811.09;5038480;28;45487;-71
2023/01/29 06:23:36;;;;;;;;;37.00;26.50;;;;;3.25;100.00;102818.03;5038613;28;45534;-71
2023/01/29 06:26:03;;;;;;;;;39.25;30.50;;;;;3.25;100.00;102812.81;5038174;28;45302;-73
2023/01/29 06:28:29;;;;;;;;;41.50;30.00;;;;;3.25;100.00;102814.50;5021857;28;45246;-72
2023/01/29 06:31:01;;;;;;;;;33.75;27.75;;;;;3.22;100.00;102816.91;5036652;28;45408;-74
2023/01/29 06:33:27;;;;;;;;;35.50;28.50;;;;;3.23;100.00;102816.09;5038098;28;45268;-73
2023/01/29 06:35:59;;;;;;;;;44.00;37.25;;;;;3.24;100.00;102828.34;5035784;28;52242;-75
2023/01/29 06:38:25;;;;;;;;;36.25;31.25;;;;;3.21;100.00;102825.53;5032712;28;45593;-71
2023/01/29 06:40:51;;;;;;;;;32.00;29.00;;;;;3.19;100.00;102833.22;5030292;28;45471;-72
2023/01/29 06:43:16;;;;;;;;;41.50;28.25;;;;;3.17;100.00;102827.00;5034218;28;45346;-71
2023/01/29 06:45:56;;;;;;;;;25.25;24.00;;;;;3.14;100.00;102827.69;5029150;28;48128;-71
2023/01/29 06:48:22;;;;;;;;;42.50;32.50;;;;;3.11;100.00;102830.06;5029817;28;45336;-72
2023/01/29 06:50:48;;;;;;;;;39.75;31.50;;;;;3.11;100.00;102830.06;5036477;28;45277;-71
2023/01/29 06:53:15;;;;;;;;;35.75;26.75;;;;;3.14;100.00;102831.97;5028727;28;45296;-71
2023/01/29 06:55:41;;;;;;;;;36.50;28.50;;;;;3.15;100.00;102837.34;5033335;28;45664;-74
2023/01/29 06:58:08;;;;;;;;;33.00;29.25;;;;;3.16;100.00;102830.41;5047774;28;45633;-73
2023/01/29 07:00:33;;;;;;;;;29.50;27.50;;;;;3.15;100.00;102826.00;5027931;28;45310;-71
2023/01/29 07:02:59;;;;;;;;;36.25;30.50;;;;;3.13;100.00;102822.34;5025185;28;45597;-71
2023/01/29 07:05:24;;;;;;;;;34.50;29.75;;;;;3.13;100.00;102825.84;5043992;28;46583;-72
2023/01/29 07:07:49;;;;;;;;;37.75;27.75;;;;;3.12;100.00;102813.59;5022120;28;59809;-71
2023/01/29 07:10:15;;;;;;;;;31.75;22.25;;;;;3.14;100.00;102831.97;5036528;28;52520;-71
2023/01/29 07:12:40;;;;;;;;;38.25;31.50;;;;;3.12;100.00;102826.66;5038021;23;45596;-72
2023/01/29 07:15:06;;;;;;;;;31.25;22.75;;;;;3.15;100.00;102833.81;5058404;28;58812;-71
2023/01/29 07:17:32;;;;;;;;;32.00;29.50;;;;;3.13;100.00;102819.72;5058919;28;45666;-71
2023/01/29 07:19:57;;;;;;;;;37.75;32.50;;;;;3.15;100.00;102824.28;5058463;28;53091;-72
2023/01/29 07:22:22;;;;;;;;;30.75;26.50;;;;;3.13;100.00;102828.47;5057173;28;48003;-71
2023/01/29 07:24:48;;;;;;;;;36.00;28.25;;;;;3.17;100.00;102831.31;5059383;28;46613;-71
2023/01/29 07:27:13;;;;;;;;;36.25;29.00;;;;;3.16;100.00;102827.81;5058105;28;55975;-72
2023/01/29 07:29:38;;;;;;;;;35.00;27.25;;;;;3.11;100.00;102822.25;5058850;28;51925;-74
2023/01/29 07:32:04;;;;;;;;;32.75;25.75;;;;;3.11;100.00;102822.25;5058515;28;45419;-73
2023/01/29 07:34:29;;;;;;;;;39.75;32.50;;;;;3.11;100.00;102835.28;5040749;28;48147;-71
2023/01/29 07:36:55;;;;;;;;;40.50;32.75;;;;;3.09;100.00;102839.50;5040745;28;45454;-74
2023/01/29 07:39:21;;;;;;;;;44.00;30.50;;;;;3.05;100.00;102826.13;5059234;28;45362;-74
2023/01/29 07:41:47;;;;;;;;;37.75;28.75;;;;;3.09;100.00;102822.91;5040886;28;45242;-72
2023/01/29 07:44:12;;;;;;;;;37.50;30.75;;;;;3.10;100.00;102836.09;5058414;28;53066;-73
2023/01/29 07:46:37;;;;;;;;;36.25;28.25;;;;;3.09;100.00;102836.91;5057912;28;56482;-71
2023/01/29 07:49:03;;;;;;;;;31.00;25.25;;;;;3.06;100.00;102827.91;5059065;28;45396;-71
2023/01/29 07:51:28;;;;;;;;;43.25;38.00;;;;;3.05;100.00;102829.63;5057250;28;52633;-71
2023/01/29 07:53:53;;;;;;;;;37.75;27.25;;;;;3.06;100.00;102820.09;5051032;28;56953;-70
2023/01/29 07:56:19;;;;;;;;;35.00;30.25;;;;;3.10;100.00;102833.47;5056463;28;50504;-72
2023/01/29 07:58:44;;;;;;;;;34.50;29.25;;;;;3.11;100.00;102819.63;5053839;28;54716;-70
2023/01/29 08:01:09;;;;;;;;;40.50;31.25;;;;;3.17;100.00;102819.16;5058117;28;50129;-70
2023/01/29 08:03:35;;;;;;;;;35.75;31.25;;;;;3.21;100.00;102829.03;5057668;28;45385;-70
2023/01/29 08:06:02;;;;;;;;;45.00;31.50;;;;;3.22;100.00;102827.34;5036885;28;46089;-73
2023/01/29 08:08:27;;;;;;;;;36.50;35.00;;;;;3.23;100.00;102818.69;5047967;28;45423;-73
2023/01/29 08:10:53;;;;;;;;;31.50;25.00;;;;;3.26;100.00;102832.00;5052360;28;45556;-72
2023/01/29 08:13:18;;;;;;;;;37.25;30.50;;;;;3.25;100.00;102835.38;5049609;28;63086;-70
2023/01/29 08:15:44;;;;;;;;;44.50;35.25;;;;;3.27;100.00;102841.63;5052638;28;46628;-71
2023/01/29 08:18:10;;;;;;;;;39.50;31.50;;;;;3.26;100.00;102847.66;5025131;28;45593;-70
2023/01/29 08:20:35;;;;;;;;;50.00;36.25;;;;;3.24;100.00;102831.84;5040383;28;45504;-73
2023/01/29 08:23:03;;;;;;;;;35.00;34.00;;;;;3.26;100.00;102839.81;5038088;28;52829;-74
2023/01/29 08:25:28;;;;;;;;;45.50;36.75;;;;;3.31;100.00;102831.53;5056505;28;45566;-72
2023/01/29 08:27:58;;;;;;;;;41.50;33.25;;;;;3.30;100.00;102820.94;5034334;28;45546;-69
2023/01/29 08:30:31;;;;;;;;;47.00;36.00;;;;;3.39;100.00;102827.75;5030563;28;45462;-69
2023/01/29 08:32:57;;;;;;;;;39.25;27.25;;;;;3.44;100.00;102824.56;5033955;28;46751;-72
2023/01/29 08:35:23;;;;;;;;;43.75;37.25;;;;;3.50;100.00;102835.44;5051068;28;45530;-70
2023/01/29 08:37:57;;;;;;;;;53.00;33.50;;;;;3.51;100.00;102825.09;5048042;28;45246;-70
2023/01/29 08:40:23;;;;;;;;;44.00;34.00;;;;;3.56;100.00;102821.13;5055508;28;45463;-73
2023/01/29 08:42:48;;;;;;;;;47.25;39.75;;;;;3.60;100.00;102828.38;5053455;28;50748;-71
2023/01/29 08:45:14;;;;;;;;;44.50;38.25;;;;;3.66;100.00;102841.88;5051433;28;56811;-71
2023/01/29 08:47:44;;;;;;;;;50.25;39.25;;;;;3.70;100.00;102832.56;5030864;28;45378;-72
2023/01/29 08:50:10;;;;;;;;;46.75;35.00;;;;;3.76;100.00;102835.59;5038601;28;45463;-71
2023/01/29 08:52:35;;;;;;;;;45.00;33.75;;;;;3.79;100.00;102833.22;5050734;28;46590;-72
2023/01/29 08:55:01;;;;;;;;;48.75;32.50;;;;;3.92;100.00;102858.50;5050764;28;56122;-73
2023/01/29 08:57:26;;;;;;;;;42.50;34.50;;;;;3.94;100.00;102862.09;5057518;28;45299;-72
2023/01/29 08:59:51;;;;;;;;;42.25;35.75;;;;;4.00;100.00;102873.03;5056455;28;55033;-71
2023/01/29 09:02:17;;;;;;;;;34.75;33.50;;;;;4.04;100.00;102869.78;5051236;28;57940;-72
2023/01/29 09:04:42;;;;;;;;;49.50;38.00;;;;;4.15;100.00;102870.53;5056264;28;55755;-72
2023/01/29 09:07:07;;;;;;;;;39.75;32.50;;;;;4.23;100.00;102872.00;5057056;28;50369;-70
2023/01/29 09:09:33;;;;;;;;;41.75;35.50;;;;;4.33;100.00;102870.94;5056541;28;54224;-70
2023/01/29 09:11:58;;;;;;;;;50.00;34.50;;;;;4.39;100.00;102868.75;5053892;28;48124;-70
2023/01/29 09:14:23;;;;;;;;;38.25;29.25;;;;;4.46;100.00;102863.13;5036493;28;45332;-71
2023/01/29 09:16:49;;;;;;;;;44.00;34.25;;;;;4.50;100.00;102865.16;5031580;28;45801;-71
2023/01/29 09:19:14;;;;;;;;;28.25;25.50;;;;;4.61;100.00;102874.63;5052655;28;48232;-74
2023/01/29 09:21:39;;;;;;;;;36.50;29.75;;;;;4.67;100.00;102869.81;5045513;28;54803;-74
2023/01/29 09:24:05;;;;;;;;;35.75;35.00;;;;;4.71;100.00;102850.91;5049085;28;51578;-76
2023/01/29 09:26:30;;;;;;;;;35.75;33.25;;;;;4.76;100.00;102858.16;5025782;28;45427;-74
2023/01/29 09:28:56;;;;;;;;;42.25;28.00;;;;;4.80;100.00;102862.78;5045117;28;45429;-75
2023/01/29 09:31:21;;;;;;;;;47.75;33.00;;;;;4.83;100.00;102855.13;5040449;28;63025;-74
2023/01/29 09:33:46;;;;;;;;;37.75;30.75;;;;;4.88;100.00;102852.00;5047870;28;54231;-71
2023/01/29 09:36:12;;;;;;;;;40.75;32.25;;;;;4.98;100.00;102866.63;5048513;28;50616;-69
2023/01/29 09:38:37;;;;;;;;;39.75;29.25;;;;;5.04;100.00;102860.88;5045530;28;45372;-72
2023/01/29 09:41:14;;;;;;;;;35.75;30.75;;;;;5.08;100.00;102871.66;5023295;28;46524;-72
2023/01/29 09:44:01;;;;;;;;;42.00;34.75;;;;;5.13;100.00;102870.25;5037393;28;45230;-70
2023/01/29 09:46:29;;;;;;;;;43.50;30.75;;;;;5.20;100.00;102864.59;5044001;28;45467;-70
2023/01/29 09:49:06;;;;;;;;;40.00;31.75;;;;;5.23;100.00;102851.72;5050001;28;45599;-69
2023/01/29 09:51:46;;;;;;;;;37.25;33.00;;;;;5.25;100.00;102850.09;5020913;28;47865;-69
2023/01/29 09:54:39;;;;;;;;;37.75;27.00;;;;;5.32;100.00;102847.88;5031866;28;45688;-71
2023/01/29 09:57:09;;;;;;;;;31.50;23.75;;;;;5.39;100.00;102857.97;5055781;28;45421;-72
2023/01/29 09:59:35;;;;;;;;;42.75;26.75;;;;;5.41;100.00;102846.75;5035874;28;45355;-70
2023/01/29 10:02:03;;;;;;;;;39.25;27.25;;;;;5.49;100.00;102857.75;5055839;28;56909;-70
2023/01/29 10:04:41;;;;;;;;;38.75;29.00;;;;;5.58;100.00;102866.16;5055841;28;45459;-70
2023/01/29 10:07:25;;;;;;;;;32.75;27.25;;;;;5.65;100.00;102863.16;5055952;28;45452;-71
2023/01/29 10:10:37;;;;;;;;;29.75;27.25;;;;;5.73;100.00;102861.91;5035772;28;45549;-72
2023/01/29 10:13:31;;;;;;;;;24.50;23.00;;;;;5.76;100.00;102855.97;5008580;28;45953;-72
2023/01/29 10:16:08;;;;;;;;;36.25;26.25;;;;;5.80;100.00;102860.56;5042576;28;45334;-70
2023/01/29 10:18:57;;;;;;;;;40.25;33.50;;;;;5.82;100.00;102851.09;5053438;28;45458;-71
2023/01/29 10:21:29;;;;;;;;;43.00;30.25;;;;;5.92;100.00;102844.75;5056089;28;45473;-71
2023/01/29 10:24:15;;;;;;;;;33.50;27.00;;;;;5.96;100.00;102844.13;5054316;28;46043;-73
2023/01/29 10:26:40;;;;;;;;;39.00;28.00;;;;;6.01;100.00;102840.06;5054447;28;45518;-70
2023/01/29 10:29:07;;;;;;;;;34.00;26.00;;;;;6.01;100.00;102829.56;5054955;28;45606;-72
2023/01/29 10:31:37;;;;;;;;;40.25;35.25;;;;;6.06;100.00;102835.09;5037528;28;45546;-71
2023/01/29 10:34:12;;;;;;;;;38.50;27.00;;;;;6.10;100.00;102824.91;5055528;28;46674;-71
2023/01/29 10:36:42;;;;;;;;;37.75;28.75;;;;;6.18;100.00;102826.28;5029366;28;45278;-73
2023/01/29 10:39:20;;;;;;;;;31.50;27.75;;;;;6.30;100.00;102826.13;5054280;28;45295;-72
2023/01/29 10:42:26;;;;;;;;;35.50;30.25;;;;;6.35;100.00;102811.56;5054983;28;45530;-73
2023/01/29 10:45:13;;;;;;;;;33.00;24.50;;;;;6.47;100.00;102809.66;5044425;28;46242;-71
2023/01/29 10:47:59;;;;;;;;;37.00;27.00;;;;;6.54;100.00;102818.78;5056259;28;45201;-72
2023/01/29 10:50:36;;;;;;;;;31.50;24.00;;;;;6.54;100.00;102809.19;5052743;28;45277;-70
2023/01/29 10:53:29;;;;;;;;;33.25;28.75;;;;;6.61;100.00;102802.63;5025477;28;45321;-73
2023/01/29 10:56:16;;;;;;;;;44.75;33.75;;;;;6.70;100.00;102805.75;5050622;28;45460;-69
2023/01/29 10:58:50;;;;;;;;;30.00;24.00;;;;;6.81;100.00;102806.38;5045967;28;45328;-72
2023/01/29 11:01:15;;;;;;;;;43.75;30.25;;;;;6.90;100.00;102801.66;5038114;28;45483;-70
2023/01/29 11:03:41;;;;;;;;;38.25;28.25;;;;;7.03;100.00;102798.00;5055746;28;51745;-73
2023/01/29 11:06:10;;;;;;;;;35.25;31.75;;;;;7.14;100.00;102802.16;5024028;28;58147;-70
2023/01/29 11:09:07;;;;;;;;;33.25;29.50;;;;;7.23;100.00;102792.16;5025581;28;45571;-70
2023/01/29 11:11:46;;;;;;;;;34.00;26.00;;;;;7.32;100.00;102795.31;4994750;28;45381;-71
2023/01/29 11:14:15;;;;;;;;;38.50;32.50;;;;;7.41;100.00;102794.91;5028860;28;45285;-71
2023/01/29 11:16:44;;;;;;;;;38.00;28.25;;;;;7.47;100.00;102791.72;5029205;28;46397;-70
2023/01/29 11:19:09;;;;;;;;;42.00;32.00;;;;;7.51;100.00;102791.06;5024468;28;46074;-70
2023/01/29 11:21:58;;;;;;;;;31.50;29.25;;;;;7.54;100.00;102786.88;5025836;28;45298;-72
2023/01/29 11:24:24;;;;;;;;;36.50;27.75;;;;;7.55;100.00;102780.78;5028165;28;45358;-71
2023/01/29 11:26:52;;;;;;;;;39.00;32.00;;;;;7.56;100.00;102777.38;5041068;28;46136;-70
2023/01/29 11:29:29;;;;;;;;;41.25;33.75;;;;;7.61;100.00;102780.22;5056763;28;45234;-70
2023/01/29 11:31:56;;;;;;;;;43.00;31.50;;;;;7.67;100.00;102777.00;5042672;28;45546;-71
2023/01/29 11:34:24;;;;;;;;;45.25;31.75;;;;;7.68;100.00;102768.34;5046893;28;45476;-70
2023/01/29 11:37:02;;;;;;;;;42.50;30.50;;;;;7.74;100.00;102776.53;5030193;28;45689;-72
2023/01/29 11:39:29;;;;;;;;;38.50;32.75;;;;;7.75;100.00;102762.56;5027016;28;45396;-70
2023/01/29 11:41:56;;;;;;;;;39.00;31.25;;;;;7.72;100.00;102760.66;5039288;28;45299;-71
2023/01/29 11:44:38;;;;;;;;;32.25;26.75;;;;;7.70;100.00;102757.06;5053172;28;45493;-70
2023/01/29 11:47:11;;;;;;;;;41.25;27.00;;;;;7.74;100.00;102751.16;5037824;28;47236;-70
2023/01/29 11:49:38;;;;;;;;;26.00;25.00;;;;;7.69;100.00;102744.75;5053631;28;45440;-70
2023/01/29 11:52:07;;;;;;;;;28.25;24.00;;;;;7.72;100.00;102742.25;5034372;28;45472;-70
2023/01/29 11:54:49;;;;;;;;;25.50;23.00;;;;;7.78;100.00;102746.97;5036310;28;45484;-71